Aviation Digital Data Service (ADDS)

Output produced by METARs form (0844 UTC 17 November 2018)
found at http://www.aviationweather.gov/metar/data/
 
Forecast for: ETNW (WUNSTORF (GER-AF, DE)
Text: TAF ETNW 170512Z 1706/1806 10010KT 9999 NSW FEW250
Forecast period: 0600 UTC 17 November 2018 to 0600 UTC 18 November 2018
Forecast type: FROM: standard forecast or significant change
Winds: from the E (100 degrees) at 12 MPH (10 knots; 5.1 m/s)
Visibility: 6 or more miles 10+ km)
Ceiling: at least 12,000 feet AGL
Clouds: few clouds at 25000 feet AGL
Weather: NSW  (no significant weather)
Text: TEMPO 1706/1710 10006KT 3000 BR BKN006 BY ETGL
Forecast period: 0600 to 1000 UTC 17 November 2018
Forecast type: TEMPORARY: The following changes expected for less than half the time period
Winds: from the E (100 degrees) at 7 MPH (6 knots; 3.1 m/s)
Visibility: 1.86 miles (2.99 km)
Ceiling: 600 feet AGL
Clouds: broken clouds at 600 feet AGL
Weather: BR  (mist)